Hauptseite
METAR-TAF:

METAR-TAF

Flughäfen :

Flughafen Kuwait

Kuwait-Stadt, Kuwait

Breite: 29-13N, Länge: 047-59E, Höhe: 55 m

Beobachtung

Neuester Wetterbericht von vor 16 Minuten, um 11:00 UTC
Wind 7 kt aus Nord/Nordost
Temperatur 17°C
Luftfeuchtigkeit 34%
Luftdruck 1019 hPa
Sichtweite: 8000 m
Himmel klar

METAR: OKBK 221100Z 02007KT 8000 SKC 17/01 Q1019 NOSIG

Zeit: 14:16 (11:16 UTC)

Prognose

Neuester Wetterbericht von vor 6 Stunden und 31 Minuten, um 04:45 UTC
Gültige Prognose vom 22 um 06 UTC bis 23 um 12 UTC
Wind 10 kt aus Nord/Nordwest
Sichtweite: 7000 m
Zeitweise
vom 22 um 06 UTC bis 22 um 12 UTC
Wind 3 kt aus unterschiedlichen Richtungen
Sichtweite: 3000 m
trockener Dunst

TAF: OKBK 220445Z 2206/2312 34010KT 7000 NSC TEMPO 2206/2212 VRB03KT 3000 HZ

Wetterbeobachtungen und Prognosen von mehr als 4000 Flughäfen (METAR und TAF Bericht).

Die verfügbaren Stationen werden durch gelbe und rote Markierungen auf der Karte dargestellt.

Führen Sie die Maus auf sie, um den Namen der Station zu sehen.

Darauf klicken, um die Beobachtung von Wetterbeobachtungen und Prognosen zu sehen.

Um die Karte zu ändern : klicken Sie auf den grünen Tasten mit einem schwarzen Kreuz Zum Vergrößern, auf den grünen Button mit einem Gedankenstrich zu verkleinern, oder auf die grünen Pfeile für benachbarte Karten.


METAR-TAF: